Time;durP1;ratioP1;P1;durP2;ratioP2;P2;SDS_P1;SDS_P2;PMS_P1;PMS_P2;Temp;Humidity;BMP_temperature;BMP_pressure;BME280_temperature;BME280_humidity;BME280_pressure;Samples;Min_cycle;Max_cycle;Signal;HPM_P1;HPM_P2
2022/12/08 00:01:29;;;;;;;43.15;26.75;;;;;;;7.09;80.66;100953.09;5054237;28;20056;-65
2022/12/08 00:03:58;;;;;;;44.63;26.15;;;;;;;7.16;80.43;100953.59;5024908;28;20045;-66
2022/12/08 00:09:45;;;;;;;41.67;24.88;;;;;;;6.97;80.62;100944.41;5044332;28;20064;-67
2022/12/08 00:12:15;;;;;;;39.35;24.95;;;;;;;7.10;80.22;100943.78;5028857;28;20496;-66
2022/12/08 00:14:45;;;;;;;38.97;25.40;;;;;;;6.96;80.65;100940.03;5036992;28;20412;-68
2022/12/08 00:17:14;;;;;;;40.50;25.80;;;;;;;6.87;80.76;100932.72;5025121;28;20050;-66
2022/12/08 00:19:45;;;;;;;42.95;26.45;;;;;;;6.80;81.37;100935.75;4998199;28;20046;-66
2022/12/08 00:22:13;;;;;;;40.40;25.10;;;;;;;6.97;80.73;100935.38;5047997;28;20060;-66
2022/12/08 00:24:43;;;;;;;41.25;26.13;;;;;;;6.93;81.07;100931.56;5054393;28;20041;-66
2022/12/08 00:27:12;;;;;;;;;;;;;;;6.91;81.02;100923.63;5044042;28;20056;-66
2022/12/08 00:29:39;;;;;;;48.38;27.10;;;;;;;6.94;81.28;100911.31;5019674;28;19925;-66
2022/12/08 00:32:07;;;;;;;47.30;27.33;;;;;;;6.89;81.14;100905.88;5019917;28;20443;-66
2022/12/08 00:34:34;;;;;;;43.03;25.90;;;;;;;6.99;80.75;100912.06;5051987;28;20049;-66
2022/12/08 00:37:02;;;;;;;45.83;26.30;;;;;;;6.93;80.70;100904.19;5030729;28;20827;-66
2022/12/08 00:39:30;;;;;;;44.95;26.13;;;;;;;6.97;80.60;100908.81;5017071;28;20053;-67
2022/12/08 00:42:12;;;;;;;41.38;26.08;;;;;;;6.92;81.25;100902.56;5025867;28;20121;-65
2022/12/08 00:44:41;;;;;;;38.20;25.83;;;;;;;6.78;80.82;100905.13;5043869;28;20054;-67
2022/12/08 00:47:08;;;;;;;45.72;26.67;;;;;;;6.70;81.91;100900.22;5032181;28;20059;-65
2022/12/08 00:49:36;;;;;;;45.67;25.63;;;;;;;6.67;81.68;100898.06;5054772;28;20392;-67
2022/12/08 00:52:03;;;;;;;37.83;24.73;;;;;;;6.87;81.19;100902.59;5054393;28;20052;-66
2022/12/08 00:54:31;;;;;;;44.78;26.15;;;;;;;6.77;81.32;100896.09;5025512;28;20049;-66
2022/12/08 00:56:58;;;;;;;44.03;25.13;;;;;;;6.85;81.42;100898.22;5039657;28;20395;-67
2022/12/08 00:59:25;;;;;;;43.67;25.50;;;;;;;6.96;81.09;100889.94;5013594;28;20077;-69
2022/12/08 01:01:52;;;;;;;47.28;24.85;;;;;;;7.03;80.50;100893.97;5042171;28;20443;-66
2022/12/08 01:04:20;;;;;;;36.03;24.48;;;;;;;6.91;80.81;100887.22;5035292;28;20064;-67
2022/12/08 01:06:48;;;;;;;42.75;24.42;;;;;;;6.88;80.60;100874.09;5040328;28;20511;-66
2022/12/08 01:09:16;;;;;;;39.53;23.50;;;;;;;6.72;81.11;100882.44;4999829;28;20501;-65
2022/12/08 01:11:44;;;;;;;36.13;23.02;;;;;;;6.88;81.05;100879.59;5028772;28;20524;-66
2022/12/08 01:14:12;;;;;;;37.70;22.85;;;;;;;6.84;80.57;100882.06;5053510;28;20381;-66
2022/12/08 01:16:46;;;;;;;36.65;22.63;;;;;;;6.73;80.84;100878.59;5035283;28;20129;-67
2022/12/08 01:19:14;;;;;;;44.15;22.35;;;;;;;6.88;80.70;100874.09;5036649;28;20097;-67
2022/12/08 01:21:43;;;;;;;37.75;23.77;;;;;;;6.87;80.34;100867.81;5031946;28;20157;-67
2022/12/08 01:24:13;;;;;;;37.97;23.20;;;;;;;6.70;80.73;100873.69;5019942;28;20061;-67
2022/12/08 01:26:40;;;;;;;40.30;24.17;;;;;;;6.48;80.93;100865.09;5028480;28;20056;-66
2022/12/08 01:29:08;;;;;;;34.33;22.75;;;;;;;6.67;81.21;100871.53;5053264;28;20536;-67
2022/12/08 01:31:35;;;;;;;39.33;22.58;;;;;;;6.55;81.00;100862.84;5039666;28;20053;-67
2022/12/08 01:34:03;;;;;;;38.67;24.02;;;;;;;6.63;81.24;100864.16;5026071;28;20065;-67
2022/12/08 01:36:32;;;;;;;38.45;23.92;;;;;;;6.84;80.80;100866.47;5028058;28;20041;-67
2022/12/08 01:39:01;;;;;;;45.47;27.17;;;;;;;6.71;80.57;100861.63;5036269;28;20057;-67
2022/12/08 01:41:30;;;;;;;45.00;27.10;;;;;;;6.54;81.10;100865.84;5035511;28;20053;-67
2022/12/08 01:44:01;;;;;;;43.75;27.90;;;;;;;6.46;81.07;100859.06;5036423;28;20468;-67
2022/12/08 01:46:31;;;;;;;43.42;27.52;;;;;;;6.44;81.79;100858.53;5042997;28;20056;-67
2022/12/08 01:49:10;;;;;;;52.60;28.63;;;;;;;6.35;81.42;100856.66;5025627;28;20428;-67
2022/12/08 01:51:50;;;;;;;47.28;29.63;;;;;;;6.46;81.79;100864.53;5020383;28;20061;-66
2022/12/08 01:54:18;;;;;;;46.28;29.73;;;;;;;6.31;82.03;100866.53;5037272;28;20152;-68
2022/12/08 01:56:51;;;;;;;52.53;30.73;;;;;;;6.19;82.05;100866.06;5035415;28;20045;-66
2022/12/08 01:59:19;;;;;;;50.78;30.30;;;;;;;6.03;83.51;100870.78;5037365;28;20049;-66
2022/12/08 02:01:50;;;;;;;54.58;30.38;;;;;;;6.09;83.07;100861.44;5035719;28;20076;-66
2022/12/08 02:04:18;;;;;;;49.90;29.85;;;;;;;6.21;83.29;100861.94;5035379;28;20481;-67
2022/12/08 02:06:46;;;;;;;49.15;30.20;;;;;;;6.43;82.77;100854.13;5021660;28;20519;-67
2022/12/08 02:09:13;;;;;;;47.90;30.73;;;;;;;6.16;82.56;100851.03;5044334;28;20084;-66
2022/12/08 02:11:40;;;;;;;49.90;29.45;;;;;;;6.35;82.45;100846.53;5036688;28;20049;-67
2022/12/08 02:14:09;;;;;;;50.75;31.05;;;;;;;6.36;82.22;100845.44;5057304;28;20056;-66
2022/12/08 02:16:40;;;;;;;47.20;29.85;;;;;;;6.41;81.68;100850.91;5037803;28;20064;-66
2022/12/08 02:19:48;;;;;;;50.63;29.27;;;;;;;6.42;81.50;100855.25;5055902;28;20080;-66
2022/12/08 02:22:21;;;;;;;47.92;29.77;;;;;;;6.30;82.03;100848.47;5037935;28;20148;-66
2022/12/08 02:25:06;;;;;;;48.50;29.35;;;;;;;6.40;81.64;100853.88;5015471;28;20061;-66
2022/12/08 02:27:45;;;;;;;50.38;29.67;;;;;;;6.36;80.93;100848.16;5055453;28;20447;-67
2022/12/08 02:30:37;;;;;;;51.03;30.60;;;;;;;6.38;80.87;100858.84;5035532;28;20416;-65
2022/12/08 02:33:23;;;;;;;45.65;28.48;;;;;;;6.30;81.50;100859.41;5008950;28;20050;-65
2022/12/08 02:36:04;;;;;;;52.58;30.23;;;;;;;5.78;83.13;100845.41;5032542;28;20056;-66
2022/12/08 02:38:43;;;;;;;55.03;32.38;;;;;;;5.73;83.52;100852.53;4998432;28;20065;-66
2022/12/08 02:41:25;;;;;;;60.30;35.22;;;;;;;5.97;83.44;100850.00;5015300;28;20049;-66
2022/12/08 02:44:21;;;;;;;60.80;34.42;;;;;;;6.00;82.69;100852.19;5007310;28;20133;-66
2022/12/08 02:46:55;;;;;;;58.03;36.05;;;;;;;5.93;82.29;100848.94;5034045;28;20057;-66
2022/12/08 02:49:28;;;;;;;63.50;40.33;;;;;;;5.76;82.92;100834.75;5036352;28;20072;-66
2022/12/08 02:52:05;;;;;;;72.20;44.53;;;;;;;5.70;83.59;100833.94;5006681;28;20516;-65
2022/12/08 02:54:34;;;;;;;69.82;44.65;;;;;;;6.12;82.45;100824.53;5025948;28;20061;-66
2022/12/08 02:57:11;;;;;;;68.68;44.58;;;;;;;6.25;81.90;100829.38;5029210;28;20049;-65
2022/12/08 03:00:00;;;;;;;71.57;43.10;;;;;;;6.32;81.07;100825.22;5034706;28;20136;-66
2022/12/08 03:02:34;;;;;;;56.03;34.00;;;;;;;6.29;80.85;100822.25;5053085;28;20079;-67
2022/12/08 03:05:16;;;;;;;60.08;34.05;;;;;;;5.87;81.68;100828.19;5014927;28;20050;-66
2022/12/08 03:08:02;;;;;;;52.97;33.33;;;;;;;5.65;83.15;100820.31;5031388;28;20061;-66
2022/12/08 03:10:36;;;;;;;55.20;33.30;;;;;;;6.02;82.58;100817.19;5019347;28;20053;-66
2022/12/08 03:13:12;;;;;;;58.78;33.10;;;;;;;5.82;82.15;100811.78;5038079;28;20048;-66
2022/12/08 03:15:40;;;;;;;51.35;32.28;;;;;;;6.03;82.37;100818.84;5055922;28;20045;-66
2022/12/08 03:18:10;;;;;;;58.15;31.77;;;;;;;5.99;81.46;100812.28;5025940;28;20046;-66
2022/12/08 03:20:38;;;;;;;52.13;30.85;;;;;;;5.52;82.80;100804.50;5020343;28;20049;-66
2022/12/08 03:23:08;;;;;;;51.38;30.50;;;;;;;5.62;83.02;100799.00;5030346;28;20053;-67
2022/12/08 03:25:41;;;;;;;51.40;30.20;;;;;;;5.59;83.14;100793.28;5003455;28;20064;-65
2022/12/08 03:28:08;;;;;;;53.85;30.33;;;;;;;5.44;83.15;100796.06;5038169;28;20049;-66
2022/12/08 03:30:38;;;;;;;52.40;30.33;;;;;;;5.27;83.98;100799.09;5033283;28;20049;-67
2022/12/08 03:33:15;;;;;;;50.40;30.88;;;;;;;5.40;83.72;100793.09;5015348;28;20046;-66
2022/12/08 03:35:43;;;;;;;48.47;29.67;;;;;;;5.52;83.37;100782.66;5023908;28;20041;-66
2022/12/08 03:38:13;;;;;;;52.22;30.50;;;;;;;5.63;82.74;100778.78;5037013;28;20060;-66
2022/12/08 03:40:40;;;;;;;;;;;;;;;5.52;83.53;100779.09;5055068;28;20067;-66
2022/12/08 03:43:08;;;;;;;47.78;28.60;;;;;;;5.78;82.69;100779.81;5053942;28;19932;-65
2022/12/08 03:45:35;;;;;;;49.47;29.52;;;;;;;5.48;82.86;100770.66;5031630;28;20057;-67
2022/12/08 03:48:02;;;;;;;46.10;28.45;;;;;;;5.52;83.17;100770.91;5033817;28;20053;-66
2022/12/08 03:50:30;;;;;;;49.20;29.15;;;;;;;5.81;82.69;100771.03;5035052;28;20056;-66
2022/12/08 03:52:57;;;;;;;49.33;30.00;;;;;;;5.49;82.91;100772.28;5033214;28;20053;-66
2022/12/08 03:55:24;;;;;;;48.30;30.02;;;;;;;5.19;84.19;100764.19;5015671;28;20607;-68
2022/12/08 03:57:52;;;;;;;52.45;29.55;;;;;;;4.98;84.95;100764.50;5035116;28;20061;-67
2022/12/08 04:00:19;;;;;;;51.65;31.10;;;;;;;5.06;85.80;100756.56;5030281;28;20050;-66
2022/12/08 04:02:46;;;;;;;52.38;31.70;;;;;;;5.28;85.37;100750.78;5035308;28;20052;-66
2022/12/08 04:05:14;;;;;;;49.10;30.52;;;;;;;5.41;84.68;100761.94;5033017;28;20381;-67
2022/12/08 04:07:41;;;;;;;50.45;30.42;;;;;;;5.53;84.35;100758.88;5034778;28;20064;-66
2022/12/08 04:10:09;;;;;;;50.53;29.17;;;;;;;5.30;84.32;100759.53;5032927;28;20060;-66
2022/12/08 04:12:37;;;;;;;48.75;29.15;;;;;;;5.67;83.97;100752.53;5034019;28;20057;-65
2022/12/08 04:15:05;;;;;;;44.30;28.35;;;;;;;5.54;82.80;100746.88;5033188;28;20057;-66
2022/12/08 04:17:32;;;;;;;44.70;28.38;;;;;;;5.35;83.32;100746.63;5017114;28;20073;-66
2022/12/08 04:19:59;;;;;;;43.03;27.85;;;;;;;5.39;83.68;100753.19;5020424;28;20060;-66
2022/12/08 04:22:27;;;;;;;44.97;27.80;;;;;;;5.38;83.23;100748.84;5033785;28;20057;-66
2022/12/08 04:24:54;;;;;;;48.33;29.83;;;;;;;5.51;83.33;100742.75;5033159;28;20045;-66
2022/12/08 04:27:21;;;;;;;43.85;27.95;;;;;;;5.70;82.61;100746.50;5017115;28;20053;-66
2022/12/08 04:29:48;;;;;;;47.78;28.25;;;;;;;5.67;82.72;100738.06;5022023;28;20051;-66
2022/12/08 04:32:16;;;;;;;50.05;29.13;;;;;;;5.52;83.46;100744.41;5054206;28;20045;-66
2022/12/08 04:34:43;;;;;;;47.15;27.98;;;;;;;5.39;83.51;100741.44;5036509;28;20045;-67
2022/12/08 04:37:10;;;;;;;48.42;29.10;;;;;;;5.37;84.07;100732.72;5036172;28;20045;-66
2022/12/08 04:39:37;;;;;;;47.38;28.23;;;;;;;5.49;84.07;100730.50;5035677;28;20044;-66
2022/12/08 04:42:05;;;;;;;47.10;30.02;;;;;;;5.63;83.40;100720.59;5029145;28;20053;-65
2022/12/08 04:44:32;;;;;;;46.60;28.65;;;;;;;5.83;82.39;100725.97;5044661;28;20057;-67
2022/12/08 04:46:59;;;;;;;44.25;27.95;;;;;;;5.92;81.78;100728.94;5038036;28;20057;-66
2022/12/08 04:49:27;;;;;;;43.63;26.92;;;;;;;5.84;81.61;100718.59;5038691;28;20046;-66
2022/12/08 04:51:54;;;;;;;44.10;27.52;;;;;;;6.06;81.40;100708.91;5038153;28;20050;-67
2022/12/08 04:54:21;;;;;;;45.33;27.95;;;;;;;6.17;80.08;100710.44;5028283;28;20058;-67
2022/12/08 04:56:49;;;;;;;46.45;27.80;;;;;;;6.18;80.08;100717.56;5034326;28;20045;-67
2022/12/08 04:59:16;;;;;;;51.10;28.15;;;;;;;6.10;79.24;100709.94;5020571;28;20054;-67
2022/12/08 05:01:44;;;;;;;45.58;26.17;;;;;;;5.80;80.15;100710.13;5023121;28;20535;-67
2022/12/08 05:04:11;;;;;;;43.28;27.35;;;;;;;5.79;80.81;100704.94;5037309;28;20053;-66
2022/12/08 05:06:38;;;;;;;45.47;27.67;;;;;;;5.94;80.69;100713.06;5037974;28;20053;-66
2022/12/08 05:09:06;;;;;;;43.33;27.25;;;;;;;5.91;80.06;100705.44;4995048;28;20052;-66
2022/12/08 05:11:33;;;;;;;43.25;26.23;;;;;;;5.92;80.41;100707.06;5027891;28;20049;-66
2022/12/08 05:14:01;;;;;;;41.50;25.95;;;;;;;5.84;80.47;100699.47;5037501;28;20076;-67
2022/12/08 05:16:28;;;;;;;44.53;25.83;;;;;;;5.83;80.60;100700.56;5053074;28;20073;-66
2022/12/08 05:18:55;;;;;;;39.70;24.70;;;;;;;6.00;80.32;100701.00;5038143;28;20053;-67
2022/12/08 05:21:23;;;;;;;45.90;26.58;;;;;;;6.16;79.32;100697.06;5037386;28;20058;-65
2022/12/08 05:23:50;;;;;;;42.30;25.52;;;;;;;6.15;79.67;100692.69;5021657;28;20532;-66
2022/12/08 05:26:17;;;;;;;39.63;24.13;;;;;;;6.21;78.88;100697.00;5029079;28;20400;-66
2022/12/08 05:28:44;;;;;;;43.03;24.98;;;;;;;5.62;80.18;100713.47;5038199;28;20049;-67
2022/12/08 05:31:13;;;;;;;41.53;24.85;;;;;;;5.61;80.43;100704.47;5039813;28;20060;-67
2022/12/08 05:33:42;;;;;;;44.72;25.63;;;;;;;5.68;80.58;100694.03;5039349;28;20064;-66
2022/12/08 05:36:11;;;;;;;43.17;25.95;;;;;;;5.37;81.37;100697.22;5035193;28;20037;-67
2022/12/08 05:38:39;;;;;;;46.38;25.80;;;;;;;5.68;81.35;100695.97;4999187;28;20065;-67
2022/12/08 05:41:06;;;;;;;40.67;25.20;;;;;;;5.71;81.31;100700.88;5027512;28;20064;-68
2022/12/08 05:43:34;;;;;;;45.13;25.65;;;;;;;5.84;80.66;100707.66;5035974;28;20168;-67
2022/12/08 05:46:01;;;;;;;43.05;26.15;;;;;;;6.03;79.77;100703.19;5026263;28;20049;-68
2022/12/08 05:48:28;;;;;;;44.40;27.10;;;;;;;5.40;81.16;100702.13;5052399;28;20045;-66
2022/12/08 05:50:56;;;;;;;46.20;26.52;;;;;;;5.08;83.08;100707.13;5010475;28;20060;-66
2022/12/08 05:53:23;;;;;;;43.38;26.48;;;;;;;4.90;84.94;100696.84;5056977;28;20551;-66
2022/12/08 05:55:50;;;;;;;44.08;26.20;;;;;;;4.68;85.39;100697.13;5051879;28;20041;-66
2022/12/08 05:58:19;;;;;;;46.45;26.85;;;;;;;4.84;85.94;100706.94;5057240;28;20057;-67
2022/12/08 06:00:48;;;;;;;46.10;24.35;;;;;;;4.88;85.62;100701.75;5048490;28;20053;-67
2022/12/08 06:03:17;;;;;;;39.42;23.13;;;;;;;4.78;85.33;100699.03;5017258;28;20054;-66
2022/12/08 06:05:45;;;;;;;44.50;24.35;;;;;;;4.85;86.05;100689.47;5021095;28;20048;-67
2022/12/08 06:08:12;;;;;;;43.25;24.70;;;;;;;5.04;84.73;100693.22;5052328;28;20060;-67
2022/12/08 06:10:42;;;;;;;42.78;23.42;;;;;;;4.85;84.79;100691.34;5038531;28;20090;-66
2022/12/08 06:13:09;;;;;;;42.92;24.27;;;;;;;4.51;85.98;100697.44;5043929;28;20056;-67
2022/12/08 06:15:37;;;;;;;46.13;22.40;;;;;;;4.55;86.87;100695.78;5022377;28;20150;-66
2022/12/08 06:18:05;;;;;;;47.10;24.50;;;;;;;4.68;87.21;100685.41;5039024;28;20060;-67
2022/12/08 06:20:33;;;;;;;43.35;23.20;;;;;;;4.71;86.63;100693.84;5056188;28;20049;-67
2022/12/08 06:23:00;;;;;;;44.28;23.70;;;;;;;4.68;86.76;100688.94;5056449;28;20052;-67
2022/12/08 06:25:28;;;;;;;45.40;24.27;;;;;;;4.57;87.05;100688.16;5033292;28;20567;-67
2022/12/08 06:27:55;;;;;;;46.20;24.48;;;;;;;4.57;87.01;100682.69;5016647;28;20049;-67
2022/12/08 06:30:22;;;;;;;50.03;25.05;;;;;;;4.65;87.28;100680.50;5034054;28;20053;-66
2022/12/08 06:32:50;;;;;;;43.75;23.83;;;;;;;4.52;86.71;100690.88;5056658;28;20045;-66
2022/12/08 06:35:17;;;;;;;44.35;24.67;;;;;;;4.49;87.31;100686.00;5055843;28;20631;-66
2022/12/08 06:37:44;;;;;;;47.88;25.95;;;;;;;4.76;87.37;100682.13;5038237;28;20060;-67
2022/12/08 06:40:12;;;;;;;47.00;25.52;;;;;;;4.98;86.59;100672.53;5056141;28;20059;-66
2022/12/08 06:42:46;;;;;;;42.15;24.35;;;;;;;4.81;86.18;100676.66;5005122;28;20062;-66
2022/12/08 06:45:15;;;;;;;43.95;23.88;;;;;;;5.02;85.69;100675.50;5031409;28;20049;-66
2022/12/08 06:47:43;;;;;;;46.50;26.00;;;;;;;5.21;84.31;100669.13;5056330;28;20052;-67
2022/12/08 06:50:11;;;;;;;45.72;24.50;;;;;;;5.14;84.31;100673.28;5038639;28;20049;-67
2022/12/08 06:52:40;;;;;;;45.65;24.95;;;;;;;5.30;84.02;100672.13;5029778;28;20061;-67
2022/12/08 06:55:20;;;;;;;47.85;24.00;;;;;;;5.41;83.14;100662.78;5002287;28;20140;-66
2022/12/08 06:58:07;;;;;;;34.63;19.65;;;;;;;5.12;83.72;100670.00;5041798;28;20080;-67
2022/12/08 07:00:34;;;;;;;35.90;19.10;;;;;;;5.03;83.13;100671.69;5022258;28;20049;-66
2022/12/08 07:03:02;;;;;;;34.28;19.48;;;;;;;5.12;82.69;100673.56;5056209;28;20049;-66
2022/12/08 07:05:29;;;;;;;30.83;19.35;;;;;;;5.15;82.41;100669.44;5022843;28;20408;-67
2022/12/08 07:07:56;;;;;;;32.67;18.73;;;;;;;5.37;82.23;100669.91;5036809;28;20056;-67
2022/12/08 07:10:24;;;;;;;33.13;18.10;;;;;;;5.28;81.89;100666.94;5054550;28;20045;-68
2022/12/08 07:12:51;;;;;;;30.70;18.23;;;;;;;5.42;81.08;100669.88;5054737;28;20056;-66
2022/12/08 07:15:19;;;;;;;30.40;18.00;;;;;;;5.53;80.59;100669.53;5037264;28;20045;-67
2022/12/08 07:17:47;;;;;;;38.47;19.02;;;;;;;5.36;80.64;100663.63;5037692;28;20381;-67
2022/12/08 07:20:14;;;;;;;31.15;18.80;;;;;;;5.36;80.66;100671.81;5034989;28;20042;-67
2022/12/08 07:22:50;;;;;;;32.35;18.63;;;;;;;5.39;80.54;100670.44;5035387;28;20061;-68
2022/12/08 07:25:18;;;;;;;36.45;19.38;;;;;;;5.42;80.72;100672.63;5047519;28;20049;-68
2022/12/08 07:27:46;;;;;;;33.55;20.20;;;;;;;5.27;81.49;100667.22;5034422;28;20053;-68
2022/12/08 07:30:14;;;;;;;32.78;18.85;;;;;;;5.34;80.96;100662.25;5027424;28;20152;-67
2022/12/08 07:32:41;;;;;;;32.30;18.35;;;;;;;5.46;80.26;100668.22;5055238;28;20503;-67
2022/12/08 07:35:09;;;;;;;31.60;17.45;;;;;;;5.38;80.01;100666.06;5052985;28;20068;-68
2022/12/08 07:37:37;;;;;;;34.35;18.63;;;;;;;5.56;79.80;100668.19;5036815;28;20056;-67
2022/12/08 07:40:06;;;;;;;34.08;18.88;;;;;;;5.58;79.05;100674.97;5037263;28;20052;-68
2022/12/08 07:42:34;;;;;;;33.65;18.92;;;;;;;5.47;79.44;100675.31;5003362;28;20061;-67
2022/12/08 07:45:01;;;;;;;34.33;18.65;;;;;;;5.23;79.41;100675.13;5010892;28;20049;-67
2022/12/08 07:47:29;;;;;;;32.13;17.80;;;;;;;5.28;79.84;100672.38;5053717;28;20056;-68
2022/12/08 07:49:56;;;;;;;28.73;17.30;;;;;;;5.39;79.80;100668.53;5037869;28;20046;-67
2022/12/08 07:52:23;;;;;;;32.83;18.50;;;;;;;5.30;79.69;100670.19;5031990;28;20057;-66
2022/12/08 07:54:50;;;;;;;31.20;17.65;;;;;;;5.53;78.93;100672.28;5030830;28;20061;-67
2022/12/08 07:57:18;;;;;;;26.08;16.05;;;;;;;5.51;78.16;100663.53;5026424;28;20521;-67
2022/12/08 07:59:45;;;;;;;33.33;20.13;;;;;;;5.50;77.94;100663.81;4987879;28;20417;-67
2022/12/08 08:02:17;;;;;;;47.35;25.88;;;;;;;5.16;79.21;100671.88;5025626;28;20663;-66
2022/12/08 08:04:52;;;;;;;39.92;19.98;;;;;;;5.38;78.83;100658.72;5017646;28;20051;-67
2022/12/08 08:07:20;;;;;;;38.63;17.95;;;;;;;5.41;78.85;100663.59;5017281;28;20061;-66
2022/12/08 08:09:48;;;;;;;41.72;24.13;;;;;;;5.40;79.00;100653.78;5013840;28;20057;-65
2022/12/08 08:12:15;;;;;;;35.60;20.15;;;;;;;5.36;78.93;100649.16;5012753;28;20670;-65
2022/12/08 08:15:00;;;;;;;32.50;17.42;;;;;;;5.36;79.16;100654.59;5024297;28;20053;-64
2022/12/08 08:17:28;;;;;;;30.42;16.75;;;;;;;5.30;79.22;100651.09;5027709;28;20052;-64
2022/12/08 08:19:56;;;;;;;29.90;17.40;;;;;;;5.33;79.07;100644.25;5020802;28;20122;-66
2022/12/08 08:22:25;;;;;;;27.17;16.23;;;;;;;5.28;79.40;100649.75;4990877;28;20045;-69
2022/12/08 08:24:53;;;;;;;29.60;17.17;;;;;;;5.60;79.02;100647.38;5019403;28;20046;-68
2022/12/08 08:27:21;;;;;;;32.42;16.80;;;;;;;5.52;77.71;100651.53;5017604;28;20056;-66
2022/12/08 08:29:49;;;;;;;28.50;17.00;;;;;;;5.37;78.40;100651.59;5004537;28;20056;-69
2022/12/08 08:32:16;;;;;;;31.05;17.27;;;;;;;5.53;78.48;100647.69;5025840;28;20511;-70
2022/12/08 08:34:43;;;;;;;31.77;17.60;;;;;;;5.11;78.22;100655.53;5028117;28;20060;-70
2022/12/08 08:37:10;;;;;;;31.88;18.58;;;;;;;5.04;79.75;100659.69;5008504;28;20053;-68
2022/12/08 08:39:38;;;;;;;32.20;18.20;;;;;;;5.12;79.82;100646.25;5009328;28;20077;-70
2022/12/08 08:42:05;;;;;;;44.22;22.38;;;;;;;5.58;78.76;100639.47;5019472;28;20512;-70
2022/12/08 08:44:32;;;;;;;36.72;21.17;;;;;;;5.52;78.12;100629.69;5024523;28;20064;-71
2022/12/08 08:47:01;;;;;;;32.75;17.65;;;;;;;5.51;78.61;100632.66;5023672;28;20053;-70
2022/12/08 08:49:28;;;;;;;29.95;18.30;;;;;;;5.27;78.77;100631.72;5024149;28;20393;-70
2022/12/08 08:51:56;;;;;;;32.30;17.27;;;;;;;5.28;79.18;100636.88;5017500;28;20041;-70
2022/12/08 08:54:23;;;;;;;34.03;18.48;;;;;;;5.38;79.27;100627.84;5028190;28;20508;-71
2022/12/08 08:56:51;;;;;;;33.90;18.50;;;;;;;5.18;78.88;100630.66;4994354;28;20408;-71
2022/12/08 08:59:18;;;;;;;31.33;17.98;;;;;;;5.19;79.46;100635.03;5002651;28;20053;-71
2022/12/08 09:01:46;;;;;;;32.20;18.40;;;;;;;5.47;79.04;100635.16;5024006;28;20037;-69
2022/12/08 09:04:14;;;;;;;32.97;18.10;;;;;;;5.82;77.58;100633.31;5005082;28;20093;-69
2022/12/08 09:06:43;;;;;;;34.67;18.23;;;;;;;5.82;77.66;100631.41;4995531;28;20050;-69
2022/12/08 09:09:11;;;;;;;31.10;17.02;;;;;;;5.82;77.35;100627.84;5005729;28;20425;-67
2022/12/08 09:11:38;;;;;;;29.30;18.50;;;;;;;5.82;77.05;100634.13;5009588;28;20054;-70
2022/12/08 09:14:06;;;;;;;28.90;17.48;;;;;;;5.78;77.15;100630.31;5007088;28;20500;-73
2022/12/08 09:16:33;;;;;;;29.27;17.73;;;;;;;5.98;77.37;100637.59;5029999;28;20058;-73
2022/12/08 09:19:08;;;;;;;33.05;18.25;;;;;;;5.84;76.75;100634.66;4991900;28;20053;-70
2022/12/08 09:21:35;;;;;;;32.35;17.65;;;;;;;5.70;77.20;100629.00;5016805;28;20060;-68
2022/12/08 09:24:03;;;;;;;29.90;17.90;;;;;;;5.88;76.86;100626.72;5010758;28;20647;-70
2022/12/08 09:26:30;;;;;;;24.58;15.63;;;;;;;6.11;77.00;100624.09;5028263;28;20056;-72
2022/12/08 09:28:57;;;;;;;27.40;17.88;;;;;;;5.92;77.29;100628.63;5001097;28;20056;-67
2022/12/08 09:31:24;;;;;;;23.55;15.10;;;;;;;5.64;76.43;100626.59;5032206;28;20437;-68
2022/12/08 09:33:52;;;;;;;26.17;15.30;;;;;;;5.58;75.99;100619.50;5028792;28;20042;-68
2022/12/08 09:36:20;;;;;;;23.70;13.60;;;;;;;5.55;76.49;100625.56;5030960;28;20052;-71
2022/12/08 09:38:49;;;;;;;23.85;14.40;;;;;;;5.57;76.15;100623.34;4983399;28;20061;-69
2022/12/08 09:41:23;;;;;;;25.90;14.60;;;;;;;5.62;76.47;100623.31;5024037;28;20045;-71
2022/12/08 09:43:50;;;;;;;24.40;14.32;;;;;;;5.81;76.10;100621.56;5028819;28;20064;-70
2022/12/08 09:46:18;;;;;;;20.52;12.90;;;;;;;5.95;76.56;100625.31;5030884;28;20061;-68
2022/12/08 09:48:54;;;;;;;25.58;13.15;;;;;;;5.64;76.72;100621.94;5005733;28;20045;-67
2022/12/08 09:51:26;;;;;;;21.88;12.88;;;;;;;5.63;75.48;100616.78;5027074;28;20045;-70
2022/12/08 09:54:18;;;;;;;19.80;12.38;;;;;;;5.75;74.95;100618.03;5012901;28;20520;-68
2022/12/08 09:56:46;;;;;;;21.33;12.93;;;;;;;5.46;75.44;100610.84;5025197;28;20144;-66
2022/12/08 09:59:22;;;;;;;22.85;13.07;;;;;;;5.62;75.67;100606.94;5027833;28;20060;-66
2022/12/08 10:01:51;;;;;;;22.52;13.35;;;;;;;5.73;75.17;100598.41;5013610;28;20112;-71
2022/12/08 10:04:25;;;;;;;19.00;13.30;;;;;;;5.77;75.31;100604.06;5011702;28;20065;-71
2022/12/08 10:07:29;;;;;;;30.23;14.70;;;;;;;5.83;75.28;100597.53;5021260;28;20057;-66
2022/12/08 10:10:26;;;;;;;21.40;13.40;;;;;;;5.87;74.21;100593.13;5024699;28;20053;-71
2022/12/08 10:13:07;;;;;;;19.05;13.50;;;;;;;5.85;74.78;100583.56;5022724;28;20587;-70
2022/12/08 10:15:59;;;;;;;21.58;12.85;;;;;;;5.78;74.76;100588.50;5016176;28;20061;-67
2022/12/08 10:18:31;;;;;;;22.75;13.15;;;;;;;5.97;74.38;100589.47;5001412;28;20049;-68
2022/12/08 10:21:12;;;;;;;19.80;13.70;;;;;;;5.77;74.03;100584.16;5019709;28;20041;-67
2022/12/08 10:23:44;;;;;;;22.95;14.65;;;;;;;5.81;75.03;100590.66;5016062;28;20346;-68
2022/12/08 10:26:14;;;;;;;22.60;14.38;;;;;;;5.76;74.85;100583.34;5012818;28;20075;-67
2022/12/08 10:28:41;;;;;;;;;;;;;;;6.00;74.94;100578.00;5021856;28;20050;-68
2022/12/08 10:31:20;;;;;;;18.73;13.13;;;;;;;5.71;74.61;100566.97;5018889;28;19933;-68
2022/12/08 10:33:59;;;;;;;21.23;13.88;;;;;;;5.84;74.88;100571.00;5025436;28;20042;-69
2022/12/08 10:36:50;;;;;;;20.88;14.10;;;;;;;6.08;73.57;100560.97;5024334;28;20049;-67
2022/12/08 10:39:39;;;;;;;25.83;14.77;;;;;;;6.18;73.57;100552.66;5027253;28;20065;-68
2022/12/08 10:42:20;;;;;;;24.05;16.30;;;;;;;6.11;72.86;100552.16;5018052;28;20061;-67
2022/12/08 10:45:07;;;;;;;22.10;13.82;;;;;;;5.74;74.59;100550.00;5017459;28;20053;-68
2022/12/08 10:47:37;;;;;;;24.70;15.88;;;;;;;5.84;74.65;100549.16;5016287;28;20436;-68
2022/12/08 10:50:35;;;;;;;29.52;14.45;;;;;;;5.56;74.83;100553.44;4999127;28;20057;-68
2022/12/08 10:53:06;;;;;;;27.33;15.30;;;;;;;5.82;75.07;100552.16;5025654;28;20052;-68
2022/12/08 10:56:10;;;;;;;29.83;17.35;;;;;;;6.00;74.04;100534.25;5031582;28;20061;-67
2022/12/08 10:58:39;;;;;;;27.55;15.73;;;;;;;6.06;74.43;100531.19;5015503;28;20045;-69
2022/12/08 11:01:12;;;;;;;22.77;15.13;;;;;;;5.98;74.16;100539.19;5014697;28;20057;-68
2022/12/08 11:03:46;;;;;;;23.15;15.35;;;;;;;6.05;73.70;100529.53;5014889;28;20469;-69
2022/12/08 11:06:19;;;;;;;25.05;15.43;;;;;;;5.78;74.08;100529.22;5019678;28;20066;-66
2022/12/08 11:09:02;;;;;;;23.65;14.73;;;;;;;5.75;74.10;100529.78;5006820;28;20497;-66
2022/12/08 11:11:38;;;;;;;22.70;15.60;;;;;;;5.82;74.41;100516.63;5001186;28;20050;-66
2022/12/08 11:14:07;;;;;;;22.75;14.45;;;;;;;5.39;74.50;100517.47;5006458;28;20551;-68
2022/12/08 11:16:34;;;;;;;25.02;16.55;;;;;;;5.74;75.14;100507.09;5023323;28;20053;-66
2022/12/08 11:19:05;;;;;;;23.42;15.55;;;;;;;6.14;73.45;100505.09;5008414;28;20060;-68
2022/12/08 11:21:35;;;;;;;39.20;15.75;;;;;;;5.76;74.12;100498.63;5015920;28;20171;-67
2022/12/08 11:24:20;;;;;;;23.23;15.50;;;;;;;5.95;74.10;100506.94;5009920;28;20080;-68
2022/12/08 11:26:59;;;;;;;25.48;17.05;;;;;;;6.06;73.36;100506.56;5030804;28;20050;-68
2022/12/08 11:29:28;;;;;;;32.93;20.27;;;;;;;6.33;73.22;100504.06;5025878;28;20053;-67
2022/12/08 11:32:04;;;;;;;29.98;18.83;;;;;;;6.27;73.16;100502.53;4985959;28;20046;-66
2022/12/08 11:34:38;;;;;;;24.80;17.45;;;;;;;6.25;72.56;100499.25;5012214;28;20057;-67
2022/12/08 11:37:10;;;;;;;25.98;17.77;;;;;;;6.28;72.51;100495.94;5025090;28;20473;-67